SWA4364 KSMF-KPHX
Flight info
| Callsign | SWA4364 |
|---|---|
| Flight time | 1h 31m |
| Altitude | 39000 |
| Route | SCTWN4 SHUFL Q13 WOTRO BRUSR1 |
| Aircraft | B38M/M-SADE2E3GHIJ4J7P2RWZ/LB1D1 |
Departure
| Time | 2026-05-05 12:44 |
|---|---|
| Airport | Sacramento International Airport (KSMF) |
Arrival
| Time | 2026-05-05 14:15 |
|---|---|
| Airport | Phoenix Sky Harbor International Airport (KPHX) |
| Time | Latitude | Longitude | Altitude | Speed | Heading |
|---|---|---|---|---|---|
| 2026-05-05 12:14 | 38.69596 | -121.59531 | 31 ft | 0 kts | 125° |
| 2026-05-05 12:34 | 38.69607 | -121.59555 | 31 ft | 4 kts | 114° |
| 2026-05-05 12:34 | 38.69613 | -121.59586 | 31 ft | 4 kts | 73° |
| 2026-05-05 12:35 | 38.69603 | -121.59599 | 31 ft | 1 kts | 1° |
| 2026-05-05 12:39 | 38.69605 | -121.59599 | 31 ft | 2 kts | 1° |
| 2026-05-05 12:39 | 38.69646 | -121.59598 | 31 ft | 9 kts | 0° |
| 2026-05-05 12:39 | 38.69697 | -121.59639 | 31 ft | 10 kts | 290° |
| 2026-05-05 12:40 | 38.69702 | -121.59738 | 31 ft | 12 kts | 271° |
| 2026-05-05 12:40 | 38.69719 | -121.59847 | 31 ft | 13 kts | 319° |
| 2026-05-05 12:40 | 38.69815 | -121.59862 | 31 ft | 15 kts | 1° |
| 2026-05-05 12:40 | 38.69928 | -121.59860 | 31 ft | 17 kts | 0° |
| 2026-05-05 12:41 | 38.70056 | -121.59859 | 31 ft | 19 kts | 0° |
| 2026-05-05 12:41 | 38.70198 | -121.59857 | 31 ft | 21 kts | 1° |
| 2026-05-05 12:41 | 38.70354 | -121.59854 | 31 ft | 23 kts | 0° |
| 2026-05-05 12:41 | 38.70512 | -121.59852 | 31 ft | 20 kts | 1° |
| 2026-05-05 12:42 | 38.70636 | -121.59850 | 31 ft | 15 kts | 0° |
| 2026-05-05 12:42 | 38.70709 | -121.59875 | 31 ft | 11 kts | 306° |
| 2026-05-05 12:42 | 38.70721 | -121.59974 | 31 ft | 12 kts | 271° |
| 2026-05-05 12:42 | 38.70706 | -121.60078 | 30 ft | 11 kts | 238° |
| 2026-05-05 12:43 | 38.70639 | -121.60111 | 31 ft | 11 kts | 181° |
| 2026-05-05 12:43 | 38.70504 | -121.60114 | 32 ft | 40 kts | 181° |
| 2026-05-05 12:43 | 38.69939 | -121.60121 | 32 ft | 121 kts | 181° |
| 2026-05-05 12:43 | 38.68868 | -121.60122 | 178 ft | 176 kts | 180° |
| 2026-05-05 12:44 | 38.67574 | -121.60115 | 955 ft | 195 kts | 177° |
| 2026-05-05 12:44 | 38.66250 | -121.59741 | 2069 ft | 201 kts | 158° |
| 2026-05-05 12:44 | 38.65013 | -121.58610 | 2475 ft | 240 kts | 133° |
| 2026-05-05 12:44 | 38.64085 | -121.56714 | 3277 ft | 258 kts | 113° |
| 2026-05-05 12:45 | 38.63467 | -121.54591 | 4640 ft | 252 kts | 107° |
| 2026-05-05 12:45 | 38.63034 | -121.52344 | 5525 ft | 269 kts | 99° |
| 2026-05-05 12:45 | 38.62783 | -121.49928 | 6509 ft | 277 kts | 96° |
| 2026-05-05 12:45 | 38.62663 | -121.47493 | 7672 ft | 274 kts | 91° |
| 2026-05-05 12:46 | 38.62538 | -121.45049 | 8768 ft | 276 kts | 90° |
| 2026-05-05 12:46 | 38.62382 | -121.42594 | 9873 ft | 278 kts | 92° |
| 2026-05-05 12:46 | 38.62146 | -121.40101 | 10677 ft | 289 kts | 94° |
| 2026-05-05 12:46 | 38.61840 | -121.37506 | 11159 ft | 310 kts | 95° |
| 2026-05-05 12:47 | 38.61464 | -121.34709 | 11620 ft | 329 kts | 96° |
| 2026-05-05 12:47 | 38.61045 | -121.31770 | 12192 ft | 342 kts | 96° |
| 2026-05-05 12:47 | 38.60601 | -121.28765 | 13028 ft | 345 kts | 96° |
| 2026-05-05 12:47 | 38.60147 | -121.25752 | 13908 ft | 347 kts | 96° |
| 2026-05-05 12:48 | 38.59682 | -121.22700 | 14652 ft | 351 kts | 96° |
| 2026-05-05 12:48 | 38.59210 | -121.19621 | 15354 ft | 355 kts | 97° |
| 2026-05-05 12:48 | 38.58730 | -121.16502 | 16023 ft | 359 kts | 97° |
| 2026-05-05 12:48 | 38.58243 | -121.13343 | 16695 ft | 364 kts | 97° |
| 2026-05-05 12:49 | 38.57750 | -121.10144 | 17345 ft | 369 kts | 97° |
| 2026-05-05 12:49 | 38.57249 | -121.06909 | 17985 ft | 374 kts | 97° |
| 2026-05-05 12:49 | 38.56741 | -121.03628 | 18560 ft | 379 kts | 97° |
| 2026-05-05 12:49 | 38.56226 | -121.00309 | 19133 ft | 382 kts | 97° |
| 2026-05-05 12:50 | 38.55707 | -120.96976 | 19723 ft | 385 kts | 97° |
| 2026-05-05 12:50 | 38.55182 | -120.93604 | 20286 ft | 388 kts | 97° |
| 2026-05-05 12:50 | 38.54651 | -120.90206 | 20890 ft | 391 kts | 96° |
| 2026-05-05 12:50 | 38.54117 | -120.86797 | 21436 ft | 394 kts | 96° |
| 2026-05-05 12:51 | 38.53575 | -120.83343 | 21996 ft | 397 kts | 96° |
| 2026-05-05 12:51 | 38.53036 | -120.79912 | 22533 ft | 401 kts | 96° |
| 2026-05-05 12:51 | 38.52484 | -120.76408 | 23059 ft | 404 kts | 96° |
| 2026-05-05 12:51 | 38.51925 | -120.72871 | 23596 ft | 407 kts | 96° |
| 2026-05-05 12:52 | 38.51363 | -120.69316 | 24045 ft | 410 kts | 96° |
| 2026-05-05 12:52 | 38.50795 | -120.65730 | 24499 ft | 412 kts | 96° |
| 2026-05-05 12:52 | 38.50224 | -120.62136 | 24948 ft | 415 kts | 96° |
| 2026-05-05 12:52 | 38.49648 | -120.58519 | 25406 ft | 417 kts | 96° |
| 2026-05-05 12:53 | 38.49264 | -120.56109 | 25697 ft | 419 kts | 96° |
| 2026-05-05 12:53 | 38.48680 | -120.52452 | 26118 ft | 421 kts | 96° |
| 2026-05-05 12:53 | 38.48094 | -120.48787 | 26531 ft | 423 kts | 96° |
| 2026-05-05 12:53 | 38.47501 | -120.45094 | 26927 ft | 425 kts | 96° |
| 2026-05-05 12:54 | 38.46304 | -120.37651 | 27781 ft | 430 kts | 96° |
| 2026-05-05 12:54 | 38.45698 | -120.33898 | 28166 ft | 432 kts | 96° |
| 2026-05-05 12:54 | 38.45090 | -120.30135 | 28603 ft | 434 kts | 95° |
| 2026-05-05 12:55 | 38.44480 | -120.26367 | 29033 ft | 435 kts | 95° |
| 2026-05-05 12:55 | 38.43865 | -120.22578 | 29410 ft | 437 kts | 95° |
| 2026-05-05 12:55 | 38.43243 | -120.18789 | 29899 ft | 436 kts | 96° |
| 2026-05-05 12:55 | 38.42615 | -120.15019 | 30388 ft | 434 kts | 95° |
| 2026-05-05 12:56 | 38.41990 | -120.11263 | 30874 ft | 432 kts | 95° |
| 2026-05-05 12:56 | 38.41369 | -120.07536 | 31375 ft | 429 kts | 95° |
| 2026-05-05 12:56 | 38.40750 | -120.03831 | 31834 ft | 425 kts | 95° |
| 2026-05-05 12:56 | 38.40135 | -120.00155 | 32287 ft | 423 kts | 95° |
| 2026-05-05 12:57 | 38.39521 | -119.96491 | 32743 ft | 421 kts | 95° |
| 2026-05-05 12:57 | 38.38913 | -119.92875 | 33182 ft | 419 kts | 95° |
| 2026-05-05 12:57 | 38.38311 | -119.89294 | 33604 ft | 418 kts | 94° |
| 2026-05-05 12:57 | 38.37703 | -119.85691 | 34047 ft | 415 kts | 94° |
| 2026-05-05 12:58 | 38.37097 | -119.82109 | 34380 ft | 414 kts | 95° |
| 2026-05-05 12:58 | 38.36488 | -119.78512 | 34625 ft | 415 kts | 95° |
| 2026-05-05 12:58 | 38.35876 | -119.74908 | 34886 ft | 416 kts | 95° |
| 2026-05-05 12:58 | 38.35262 | -119.71296 | 35117 ft | 418 kts | 95° |
| 2026-05-05 12:59 | 38.34646 | -119.67674 | 35332 ft | 419 kts | 96° |
| 2026-05-05 12:59 | 38.34027 | -119.64048 | 35594 ft | 420 kts | 96° |
| 2026-05-05 12:59 | 38.33404 | -119.60408 | 35821 ft | 421 kts | 96° |
| 2026-05-05 13:00 | 38.32153 | -119.53108 | 36296 ft | 423 kts | 96° |
| 2026-05-05 13:00 | 38.31523 | -119.49447 | 36502 ft | 424 kts | 97° |
| 2026-05-05 13:01 | 38.29614 | -119.38396 | 37139 ft | 428 kts | 98° |
| 2026-05-05 13:01 | 38.28972 | -119.34688 | 37266 ft | 430 kts | 98° |
| 2026-05-05 13:01 | 38.28324 | -119.30957 | 37470 ft | 431 kts | 98° |
| 2026-05-05 13:01 | 38.27673 | -119.27222 | 37676 ft | 432 kts | 98° |
| 2026-05-05 13:02 | 38.27031 | -119.23538 | 37859 ft | 433 kts | 98° |
| 2026-05-05 13:02 | 38.26367 | -119.19739 | 37993 ft | 435 kts | 99° |
| 2026-05-05 13:02 | 38.25718 | -119.16029 | 38149 ft | 436 kts | 99° |
| 2026-05-05 13:02 | 38.25056 | -119.12257 | 38321 ft | 437 kts | 99° |
| 2026-05-05 13:03 | 38.24392 | -119.08482 | 38492 ft | 438 kts | 99° |
| 2026-05-05 13:03 | 38.23726 | -119.04700 | 38634 ft | 438 kts | 99° |
| 2026-05-05 13:03 | 38.23058 | -119.00911 | 38775 ft | 439 kts | 99° |
| 2026-05-05 13:03 | 38.22390 | -118.97129 | 38850 ft | 439 kts | 99° |
| 2026-05-05 13:04 | 38.21040 | -118.89523 | 38864 ft | 442 kts | 100° |
| 2026-05-05 13:04 | 38.19678 | -118.81886 | 38863 ft | 443 kts | 100° |
| 2026-05-05 13:05 | 38.18311 | -118.74243 | 38859 ft | 443 kts | 100° |
| 2026-05-05 13:05 | 38.16949 | -118.66661 | 38862 ft | 443 kts | 100° |
| 2026-05-05 13:06 | 38.15571 | -118.59023 | 38861 ft | 444 kts | 101° |
| 2026-05-05 13:06 | 38.14186 | -118.51373 | 38855 ft | 444 kts | 101° |
| 2026-05-05 13:07 | 38.12794 | -118.43714 | 38861 ft | 446 kts | 101° |
| 2026-05-05 13:07 | 38.11388 | -118.36008 | 38860 ft | 448 kts | 101° |
| 2026-05-05 13:08 | 38.09473 | -118.28502 | 38839 ft | 451 kts | 119° |
| 2026-05-05 13:08 | 38.06197 | -118.21692 | 38839 ft | 453 kts | 119° |
| 2026-05-05 13:09 | 38.02863 | -118.14892 | 38849 ft | 454 kts | 120° |
| 2026-05-05 13:09 | 37.99491 | -118.08107 | 38856 ft | 456 kts | 120° |
| 2026-05-05 13:10 | 37.96119 | -118.01341 | 38846 ft | 457 kts | 121° |
| 2026-05-05 13:10 | 37.92720 | -117.94536 | 38850 ft | 457 kts | 121° |
| 2026-05-05 13:11 | 37.89337 | -117.87779 | 38856 ft | 457 kts | 121° |
| 2026-05-05 13:11 | 37.85926 | -117.80979 | 38852 ft | 458 kts | 121° |
| 2026-05-05 13:12 | 37.82505 | -117.74173 | 38851 ft | 459 kts | 121° |
| 2026-05-05 13:12 | 37.79057 | -117.67393 | 38853 ft | 459 kts | 126° |
| 2026-05-05 13:13 | 37.76850 | -117.64483 | 38844 ft | 458 kts | 141° |
| 2026-05-05 13:13 | 37.74355 | -117.61977 | 38855 ft | 460 kts | 140° |
| 2026-05-05 13:13 | 37.69329 | -117.56929 | 38857 ft | 462 kts | 141° |
| 2026-05-05 13:14 | 37.64239 | -117.51930 | 38856 ft | 463 kts | 142° |
| 2026-05-05 13:14 | 37.59146 | -117.46953 | 38862 ft | 463 kts | 142° |
| 2026-05-05 13:15 | 37.54053 | -117.41988 | 38861 ft | 462 kts | 142° |
| 2026-05-05 13:15 | 37.48984 | -117.37052 | 38866 ft | 464 kts | 142° |
| 2026-05-05 13:16 | 37.43876 | -117.32088 | 38872 ft | 463 kts | 142° |
| 2026-05-05 13:16 | 37.38768 | -117.27138 | 38869 ft | 463 kts | 143° |
| 2026-05-05 13:17 | 37.33614 | -117.22246 | 38874 ft | 463 kts | 143° |
| 2026-05-05 13:17 | 37.28460 | -117.17388 | 38872 ft | 463 kts | 146° |
| 2026-05-05 13:18 | 37.23091 | -117.12907 | 38884 ft | 464 kts | 147° |
| 2026-05-05 13:18 | 37.17769 | -117.08414 | 38880 ft | 464 kts | 147° |
| 2026-05-05 13:19 | 37.12418 | -117.03894 | 38879 ft | 464 kts | 147° |
| 2026-05-05 13:19 | 37.07058 | -116.99375 | 38877 ft | 464 kts | 147° |
| 2026-05-05 13:20 | 37.01695 | -116.94862 | 38886 ft | 464 kts | 147° |
| 2026-05-05 13:20 | 36.96329 | -116.90352 | 38879 ft | 464 kts | 147° |
| 2026-05-05 13:21 | 36.91000 | -116.85882 | 38877 ft | 464 kts | 147° |
| 2026-05-05 13:21 | 36.85637 | -116.81391 | 38869 ft | 463 kts | 147° |
| 2026-05-05 13:22 | 36.80519 | -116.76507 | 38849 ft | 465 kts | 132° |
| 2026-05-05 13:22 | 36.78714 | -116.73166 | 38866 ft | 467 kts | 116° |
| 2026-05-05 13:22 | 36.77338 | -116.69497 | 38872 ft | 468 kts | 120° |
| 2026-05-05 13:23 | 36.74203 | -116.62347 | 38894 ft | 471 kts | 120° |
| 2026-05-05 13:23 | 36.71042 | -116.55208 | 38862 ft | 470 kts | 121° |
| 2026-05-05 13:24 | 36.67872 | -116.48069 | 38873 ft | 472 kts | 121° |
| 2026-05-05 13:24 | 36.64691 | -116.40919 | 38868 ft | 472 kts | 121° |
| 2026-05-05 13:25 | 36.61505 | -116.33773 | 38865 ft | 472 kts | 121° |
| 2026-05-05 13:25 | 36.58332 | -116.26674 | 38864 ft | 472 kts | 121° |
| 2026-05-05 13:26 | 36.55131 | -116.19527 | 38858 ft | 473 kts | 122° |
| 2026-05-05 13:26 | 36.51922 | -116.12378 | 38867 ft | 474 kts | 122° |
| 2026-05-05 13:27 | 36.48706 | -116.05228 | 38868 ft | 474 kts | 122° |
| 2026-05-05 13:27 | 36.45476 | -115.98063 | 38872 ft | 474 kts | 122° |
| 2026-05-05 13:28 | 36.42275 | -115.90976 | 38868 ft | 474 kts | 122° |
| 2026-05-05 13:28 | 36.39045 | -115.83841 | 38889 ft | 475 kts | 123° |
| 2026-05-05 13:29 | 36.35810 | -115.76710 | 38885 ft | 474 kts | 123° |
| 2026-05-05 13:29 | 36.32566 | -115.69575 | 38885 ft | 474 kts | 123° |
| 2026-05-05 13:30 | 36.29319 | -115.62449 | 38880 ft | 475 kts | 123° |
| 2026-05-05 13:30 | 36.26071 | -115.55335 | 38904 ft | 474 kts | 124° |
| 2026-05-05 13:31 | 36.22802 | -115.48192 | 38893 ft | 476 kts | 124° |
| 2026-05-05 13:31 | 36.19552 | -115.41103 | 38911 ft | 476 kts | 124° |
| 2026-05-05 13:32 | 36.16278 | -115.33978 | 38888 ft | 476 kts | 124° |
| 2026-05-05 13:32 | 36.13002 | -115.26863 | 38894 ft | 476 kts | 125° |
| 2026-05-05 13:33 | 36.09711 | -115.19734 | 38898 ft | 477 kts | 125° |
| 2026-05-05 13:33 | 36.06413 | -115.12602 | 38906 ft | 478 kts | 125° |
| 2026-05-05 13:34 | 36.03114 | -115.05482 | 38924 ft | 477 kts | 125° |
| 2026-05-05 13:34 | 35.99807 | -114.98362 | 38887 ft | 477 kts | 126° |
| 2026-05-05 13:35 | 35.96497 | -114.91249 | 38904 ft | 477 kts | 126° |
| 2026-05-05 13:35 | 35.93185 | -114.84148 | 38904 ft | 477 kts | 127° |
| 2026-05-05 13:36 | 35.89972 | -114.77272 | 38905 ft | 476 kts | 127° |
| 2026-05-05 13:36 | 35.86624 | -114.70123 | 38907 ft | 476 kts | 127° |
| 2026-05-05 13:37 | 35.83308 | -114.63058 | 38850 ft | 476 kts | 127° |
| 2026-05-05 13:37 | 35.79982 | -114.55986 | 38856 ft | 477 kts | 127° |
| 2026-05-05 13:38 | 35.77197 | -114.50073 | 38850 ft | 476 kts | 127° |
| 2026-05-05 13:38 | 35.73886 | -114.43061 | 38857 ft | 476 kts | 127° |
| 2026-05-05 13:39 | 35.70547 | -114.36003 | 38851 ft | 476 kts | 128° |
| 2026-05-05 13:39 | 35.67214 | -114.28970 | 38857 ft | 476 kts | 128° |
| 2026-05-05 13:40 | 35.63872 | -114.21935 | 38858 ft | 475 kts | 128° |
| 2026-05-05 13:40 | 35.60550 | -114.14957 | 38845 ft | 477 kts | 128° |
| 2026-05-05 13:41 | 35.58855 | -114.11399 | 38623 ft | 475 kts | 128° |
| 2026-05-05 13:41 | 35.57205 | -114.07944 | 38363 ft | 474 kts | 129° |
| 2026-05-05 13:41 | 35.55538 | -114.04452 | 38070 ft | 474 kts | 129° |
| 2026-05-05 13:41 | 35.53867 | -114.00958 | 37797 ft | 474 kts | 129° |
| 2026-05-05 13:42 | 35.52201 | -113.97477 | 37472 ft | 474 kts | 129° |
| 2026-05-05 13:42 | 35.50482 | -113.94036 | 37124 ft | 469 kts | 133° |
| 2026-05-05 13:42 | 35.48659 | -113.90708 | 36790 ft | 470 kts | 133° |
| 2026-05-05 13:42 | 35.46840 | -113.87350 | 36466 ft | 471 kts | 133° |
| 2026-05-05 13:43 | 35.45032 | -113.83996 | 36140 ft | 471 kts | 133° |
| 2026-05-05 13:43 | 35.43219 | -113.80631 | 35821 ft | 472 kts | 133° |
| 2026-05-05 13:43 | 35.41409 | -113.77275 | 35481 ft | 472 kts | 133° |
| 2026-05-05 13:43 | 35.39595 | -113.73913 | 35111 ft | 473 kts | 134° |
| 2026-05-05 13:44 | 35.37801 | -113.70591 | 34787 ft | 474 kts | 134° |
| 2026-05-05 13:44 | 35.35954 | -113.67175 | 34448 ft | 475 kts | 135° |
| 2026-05-05 13:44 | 35.34154 | -113.63849 | 34102 ft | 475 kts | 135° |
| 2026-05-05 13:44 | 35.32329 | -113.60479 | 33795 ft | 476 kts | 135° |
| 2026-05-05 13:45 | 35.30498 | -113.57101 | 33395 ft | 476 kts | 135° |
| 2026-05-05 13:45 | 35.28661 | -113.53715 | 32993 ft | 476 kts | 135° |
| 2026-05-05 13:45 | 35.26832 | -113.50346 | 32623 ft | 476 kts | 135° |
| 2026-05-05 13:45 | 35.24995 | -113.46969 | 32251 ft | 476 kts | 135° |
| 2026-05-05 13:46 | 35.23159 | -113.43596 | 31902 ft | 476 kts | 135° |
| 2026-05-05 13:46 | 35.21319 | -113.40220 | 31504 ft | 477 kts | 135° |
| 2026-05-05 13:46 | 35.19477 | -113.36841 | 31142 ft | 477 kts | 135° |
| 2026-05-05 13:46 | 35.17636 | -113.33466 | 30810 ft | 478 kts | 135° |
| 2026-05-05 13:47 | 35.15790 | -113.30079 | 30473 ft | 478 kts | 134° |
| 2026-05-05 13:47 | 35.13948 | -113.26706 | 30115 ft | 478 kts | 134° |
| 2026-05-05 13:47 | 35.12101 | -113.23322 | 29720 ft | 474 kts | 134° |
| 2026-05-05 13:47 | 35.10292 | -113.20012 | 29248 ft | 465 kts | 134° |
| 2026-05-05 13:48 | 35.08520 | -113.16771 | 29009 ft | 452 kts | 134° |
| 2026-05-05 13:48 | 35.06750 | -113.13569 | 28741 ft | 461 kts | 134° |
| 2026-05-05 13:48 | 35.04928 | -113.10276 | 28443 ft | 472 kts | 134° |
| 2026-05-05 13:48 | 35.03106 | -113.06975 | 28436 ft | 478 kts | 134° |
| 2026-05-05 13:49 | 34.99353 | -113.00188 | 28427 ft | 484 kts | 134° |
| 2026-05-05 13:49 | 34.95583 | -112.93388 | 28413 ft | 485 kts | 134° |
| 2026-05-05 13:50 | 34.91798 | -112.86573 | 28403 ft | 485 kts | 134° |
| 2026-05-05 13:50 | 34.88009 | -112.79764 | 28408 ft | 486 kts | 134° |
| 2026-05-05 13:51 | 34.84213 | -112.72955 | 28375 ft | 486 kts | 135° |
| 2026-05-05 13:51 | 34.80414 | -112.66155 | 28343 ft | 486 kts | 135° |
| 2026-05-05 13:52 | 34.76612 | -112.59362 | 28348 ft | 485 kts | 135° |
| 2026-05-05 13:52 | 34.72812 | -112.52584 | 28348 ft | 485 kts | 135° |
| 2026-05-05 13:53 | 34.68541 | -112.46517 | 28188 ft | 458 kts | 152° |
| 2026-05-05 13:53 | 34.66083 | -112.44032 | 27800 ft | 458 kts | 151° |
| 2026-05-05 13:53 | 34.63649 | -112.41595 | 27230 ft | 449 kts | 152° |
| 2026-05-05 13:54 | 34.61271 | -112.39241 | 26680 ft | 432 kts | 152° |
| 2026-05-05 13:54 | 34.59014 | -112.37024 | 26215 ft | 414 kts | 152° |
| 2026-05-05 13:54 | 34.56813 | -112.34876 | 25751 ft | 399 kts | 152° |
| 2026-05-05 13:54 | 34.54690 | -112.32805 | 25275 ft | 386 kts | 152° |
| 2026-05-05 13:55 | 34.52601 | -112.30770 | 24832 ft | 384 kts | 151° |
| 2026-05-05 13:55 | 34.50521 | -112.28743 | 24352 ft | 383 kts | 150° |
| 2026-05-05 13:55 | 34.48446 | -112.26721 | 23894 ft | 382 kts | 150° |
| 2026-05-05 13:55 | 34.46371 | -112.24705 | 23406 ft | 381 kts | 150° |
| 2026-05-05 13:56 | 34.44121 | -112.23155 | 22749 ft | 366 kts | 169° |
| 2026-05-05 13:56 | 34.41690 | -112.22400 | 22313 ft | 357 kts | 173° |
| 2026-05-05 13:56 | 34.39295 | -112.21710 | 21954 ft | 352 kts | 174° |
| 2026-05-05 13:56 | 34.36919 | -112.21056 | 21551 ft | 348 kts | 174° |
| 2026-05-05 13:57 | 34.34569 | -112.20427 | 21149 ft | 345 kts | 174° |
| 2026-05-05 13:57 | 34.32229 | -112.19811 | 20744 ft | 342 kts | 174° |
| 2026-05-05 13:57 | 34.29935 | -112.19212 | 20349 ft | 340 kts | 174° |
| 2026-05-05 13:57 | 34.27626 | -112.18613 | 19956 ft | 338 kts | 174° |
| 2026-05-05 13:58 | 34.25328 | -112.18019 | 19553 ft | 337 kts | 174° |
| 2026-05-05 13:58 | 34.23046 | -112.17429 | 19158 ft | 334 kts | 174° |
| 2026-05-05 13:58 | 34.20776 | -112.16842 | 18773 ft | 332 kts | 174° |
| 2026-05-05 13:58 | 34.18521 | -112.16260 | 18384 ft | 331 kts | 174° |
| 2026-05-05 13:59 | 34.14038 | -112.15104 | 17520 ft | 328 kts | 173° |
| 2026-05-05 13:59 | 34.11814 | -112.14530 | 17127 ft | 326 kts | 173° |
| 2026-05-05 14:00 | 34.07486 | -112.13230 | 16221 ft | 319 kts | 166° |
| 2026-05-05 14:00 | 34.06113 | -112.12643 | 15926 ft | 314 kts | 166° |
| 2026-05-05 14:00 | 34.03381 | -112.11509 | 15342 ft | 307 kts | 166° |
| 2026-05-05 14:00 | 34.01369 | -112.10689 | 14919 ft | 303 kts | 166° |
| 2026-05-05 14:01 | 33.99377 | -112.09884 | 14527 ft | 301 kts | 166° |
| 2026-05-05 14:01 | 33.97408 | -112.09092 | 14107 ft | 303 kts | 166° |
| 2026-05-05 14:01 | 33.95423 | -112.08296 | 13636 ft | 298 kts | 166° |
| 2026-05-05 14:01 | 33.93461 | -112.07510 | 13186 ft | 297 kts | 165° |
| 2026-05-05 14:02 | 33.91491 | -112.06722 | 12720 ft | 299 kts | 165° |
| 2026-05-05 14:02 | 33.89510 | -112.05930 | 12267 ft | 301 kts | 165° |
| 2026-05-05 14:02 | 33.87524 | -112.05131 | 11803 ft | 299 kts | 165° |
| 2026-05-05 14:02 | 33.85576 | -112.04340 | 11308 ft | 292 kts | 165° |
| 2026-05-05 14:03 | 33.83680 | -112.03569 | 10925 ft | 284 kts | 165° |
| 2026-05-05 14:03 | 33.81818 | -112.02814 | 10528 ft | 279 kts | 165° |
| 2026-05-05 14:03 | 33.80002 | -112.02078 | 10121 ft | 271 kts | 165° |
| 2026-05-05 14:03 | 33.78233 | -112.01362 | 9724 ft | 265 kts | 165° |
| 2026-05-05 14:04 | 33.76510 | -112.00663 | 9299 ft | 258 kts | 165° |
| 2026-05-05 14:04 | 33.74818 | -111.99979 | 9044 ft | 255 kts | 164° |
| 2026-05-05 14:04 | 33.73163 | -111.99310 | 8961 ft | 255 kts | 164° |
| 2026-05-05 14:04 | 33.71469 | -111.98626 | 8907 ft | 258 kts | 164° |
| 2026-05-05 14:05 | 33.69770 | -111.97939 | 8861 ft | 258 kts | 164° |
| 2026-05-05 14:05 | 33.68069 | -111.97254 | 8817 ft | 256 kts | 164° |
| 2026-05-05 14:05 | 33.66400 | -111.96579 | 8758 ft | 250 kts | 164° |
| 2026-05-05 14:05 | 33.64757 | -111.95914 | 8614 ft | 248 kts | 164° |
| 2026-05-05 14:06 | 33.63121 | -111.95253 | 8323 ft | 249 kts | 163° |
| 2026-05-05 14:06 | 33.61478 | -111.94589 | 8076 ft | 249 kts | 163° |
| 2026-05-05 14:06 | 33.59840 | -111.93928 | 7821 ft | 247 kts | 163° |
| 2026-05-05 14:06 | 33.58231 | -111.93277 | 7585 ft | 243 kts | 163° |
| 2026-05-05 14:07 | 33.56636 | -111.92634 | 7343 ft | 240 kts | 163° |
| 2026-05-05 14:07 | 33.55067 | -111.92001 | 7124 ft | 235 kts | 162° |
| 2026-05-05 14:07 | 33.53670 | -111.91062 | 6969 ft | 230 kts | 135° |
| 2026-05-05 14:07 | 33.52920 | -111.89426 | 6914 ft | 225 kts | 105° |
| 2026-05-05 14:08 | 33.52794 | -111.87555 | 6871 ft | 232 kts | 94° |
| 2026-05-05 14:08 | 33.52758 | -111.85606 | 6775 ft | 235 kts | 94° |
| 2026-05-05 14:08 | 33.52770 | -111.83650 | 6647 ft | 234 kts | 91° |
| 2026-05-05 14:08 | 33.52809 | -111.81699 | 6545 ft | 233 kts | 90° |
| 2026-05-05 14:09 | 33.52706 | -111.79797 | 6435 ft | 224 kts | 104° |
| 2026-05-05 14:09 | 33.52326 | -111.78014 | 6330 ft | 219 kts | 114° |
| 2026-05-05 14:09 | 33.51568 | -111.76451 | 6247 ft | 217 kts | 137° |
| 2026-05-05 14:09 | 33.50367 | -111.75406 | 6176 ft | 213 kts | 156° |
| 2026-05-05 14:10 | 33.48972 | -111.74902 | 6094 ft | 209 kts | 177° |
| 2026-05-05 14:10 | 33.47533 | -111.75036 | 5967 ft | 207 kts | 193° |
| 2026-05-05 14:10 | 33.46144 | -111.75510 | 5809 ft | 207 kts | 206° |
| 2026-05-05 14:10 | 33.45044 | -111.76575 | 5648 ft | 203 kts | 233° |
| 2026-05-05 14:11 | 33.44428 | -111.78036 | 5550 ft | 191 kts | 249° |
| 2026-05-05 14:11 | 33.44131 | -111.79550 | 5391 ft | 188 kts | 261° |
| 2026-05-05 14:11 | 33.44057 | -111.81119 | 5198 ft | 189 kts | 266° |
| 2026-05-05 14:11 | 33.44054 | -111.82690 | 4970 ft | 189 kts | 268° |
| 2026-05-05 14:12 | 33.44062 | -111.84239 | 4832 ft | 181 kts | 267° |
| 2026-05-05 14:12 | 33.44064 | -111.85734 | 4594 ft | 177 kts | 268° |
| 2026-05-05 14:12 | 33.44065 | -111.87193 | 4271 ft | 175 kts | 268° |
| 2026-05-05 14:12 | 33.44068 | -111.88632 | 4289 ft | 171 kts | 268° |
| 2026-05-05 14:13 | 33.44064 | -111.90087 | 3909 ft | 179 kts | 268° |
| 2026-05-05 14:13 | 33.44039 | -111.91624 | 3091 ft | 187 kts | 268° |
| 2026-05-05 14:13 | 33.44048 | -111.93144 | 2547 ft | 179 kts | 270° |
| 2026-05-05 14:13 | 33.44073 | -111.94596 | 2109 ft | 170 kts | 269° |
| 2026-05-05 14:14 | 33.44068 | -111.95946 | 1794 ft | 154 kts | 268° |
| 2026-05-05 14:14 | 33.44076 | -111.97186 | 1504 ft | 146 kts | 268° |
| 2026-05-05 14:14 | 33.44091 | -111.98380 | 1301 ft | 145 kts | 266° |
| 2026-05-05 14:14 | 33.44084 | -111.99586 | 1148 ft | 139 kts | 266° |
| 2026-05-05 14:15 | 33.44084 | -112.00604 | 1131 ft | 104 kts | 270° |
| 2026-05-05 14:15 | 33.44085 | -112.01271 | 1134 ft | 57 kts | 270° |
| 2026-05-05 14:15 | 33.44077 | -112.01631 | 1136 ft | 21 kts | 254° |
| 2026-05-05 14:15 | 33.44010 | -112.01733 | 1130 ft | 15 kts | 222° |
| 2026-05-05 14:16 | 33.43925 | -112.01767 | 1122 ft | 9 kts | 159° |
| 2026-05-05 14:16 | 33.43901 | -112.01693 | 1125 ft | 11 kts | 94° |
| 2026-05-05 14:16 | 33.43902 | -112.01593 | 1127 ft | 13 kts | 89° |
| 2026-05-05 14:16 | 33.43901 | -112.01473 | 1127 ft | 15 kts | 91° |
| 2026-05-05 14:17 | 33.43901 | -112.01335 | 1127 ft | 18 kts | 90° |
| 2026-05-05 14:17 | 33.43901 | -112.01179 | 1127 ft | 20 kts | 90° |
| 2026-05-05 14:17 | 33.43901 | -112.01006 | 1127 ft | 22 kts | 90° |
| 2026-05-05 14:17 | 33.43901 | -112.00818 | 1127 ft | 23 kts | 90° |
| 2026-05-05 14:18 | 33.43901 | -112.00615 | 1127 ft | 25 kts | 90° |
| 2026-05-05 14:18 | 33.43904 | -112.00464 | 1127 ft | 10 kts | 87° |
| 2026-05-05 14:18 | 33.43874 | -112.00385 | 1127 ft | 12 kts | 159° |
| 2026-05-05 14:18 | 33.43782 | -112.00379 | 1127 ft | 15 kts | 180° |
| 2026-05-05 14:19 | 33.43674 | -112.00379 | 1122 ft | 17 kts | 180° |
| 2026-05-05 14:19 | 33.43549 | -112.00380 | 1122 ft | 19 kts | 180° |
| 2026-05-05 14:19 | 33.43414 | -112.00380 | 1124 ft | 20 kts | 180° |
| 2026-05-05 14:19 | 33.43321 | -112.00378 | 1123 ft | 10 kts | 171° |
| 2026-05-05 14:20 | 33.43284 | -112.00313 | 1120 ft | 11 kts | 94° |
| 2026-05-05 14:20 | 33.43283 | -112.00210 | 1122 ft | 14 kts | 89° |
| 2026-05-05 14:20 | 33.43283 | -112.00088 | 1128 ft | 16 kts | 90° |
| 2026-05-05 14:20 | 33.43283 | -111.99946 | 1126 ft | 18 kts | 90° |
| 2026-05-05 14:21 | 33.43285 | -111.99827 | 1121 ft | 10 kts | 79° |
| 2026-05-05 14:21 | 33.43326 | -111.99782 | 1124 ft | 4 kts | 12° |
| 2026-05-05 14:21 | 33.43339 | -111.99777 | 1123 ft | 4 kts | 23° |
| 2026-05-05 14:21 | 33.43357 | -111.99751 | 1123 ft | 3 kts | 68° |
| 2026-05-05 14:22 | 33.43362 | -111.99735 | 1119 ft | 2 kts | 75° |
| 2026-05-05 14:22 | 33.43362 | -111.99732 | 1120 ft | 0 kts | 76° |